Piatra Neamt, Romania
Current Conditions -  °F | °C
As of 6:00 PM on Thursday 23 Oct 2014 (Local Time) from LRBC Reporting Station
Light Rain Light Rain  
Wind Chill: 52°   Ceiling: 300
Heat Index: 52°   Visibility: 1.5mi
Dew Point: 52°   Wind: 18mph
Humidity: 100%   Direction: 340°NNW
Pressure: 29.8"   Gusts: NA
Location:  46.92°N, 26.33°E
Report Text: LRBC 231500Z 34016KT 2400 -RA BR BKN003 BKN005 11/11 Q1009
Loading
Personal Weather Stations






























Interactive Weather Map
Tropical Storm Tracking
New forecast layout! Learn more

10-Day Weather Forecast

Advertisements
Track Severe Weather on mobile